• Join FlightAware (Why Join?)
  • Login
  • US Flag 
06:10AM EDT


 

Airport Tracker/Info


-or-


 

Live Flight TrackerFlight Track Log ✈ CES2121 ✈ 27-Oct-2013 ✈ ZLIC / INC - ZBAA / PEK

Flight Track Log - Related Links

Times and Time Zones

All times are in EDT time to prevent confusion due to time zone crossing. See the CES2121 flight status page for this flight to view local times or setup timezone preferences in your user account.

Time Position Orientation Groundspeed Altitude Reporting Facility
EDT Latitude Longitude Course Direction KTS MPH feet Rate Location/Type
08:49PM 39.7011 113.8315 74° East  Level Estimated
08:50PM 39.7197 113.9557 79° East  Level Estimated
08:51PM 39.7382 114.0800 79° East  Level Estimated
08:52PM 39.7565 114.2044 79° East  Level Estimated
08:53PM 39.7747 114.3288 79° East  Level Estimated
08:54PM 39.7928 114.4534 79° East  Level Estimated
08:55PM 39.8107 114.5779 79° East  Level Estimated
08:55PM 40.2000 115.6690 80° East 310 357 11,800  Level FlightAware
08:56PM 39.8285 114.7026 79° East  Level Estimated
08:56PM 40.1400 115.7240 145° Southeast 310 357 11,800  Level FlightAware
08:57PM 39.8462 114.8273 80° East  Level Estimated
08:57PM 40.1040 115.7570 145° Southeast 310 357 11,800  Level FlightAware
08:57PM 40.0420 115.8130 145° Southeast 304 350 11,800 -360 Level FlightAware
08:58PM 39.9900 115.8590 146° Southeast 307 353 11,300 -720 Descending FlightAware
08:59PM 39.9520 115.8940 145° Southeast 305 351 10,900 -720 Descending FlightAware
08:59PM 39.9210 115.9220 145° Southeast 308 354 10,600 -660 Descending FlightAware
09:00PM 39.8780 115.9610 145° Southeast 305 351 10,200 -660 Descending FlightAware
09:00PM 39.8480 115.9880 145° Southeast 309 356 9,900 -600 Descending FlightAware
09:01PM 39.8170 116.0160 145° Southeast 309 356 9,700 -240 Descending FlightAware
09:01PM 39.7830 116.0460 146° Southeast 311 358 9,700 -240 Level FlightAware
09:02PM 39.7530 116.0730 145° Southeast 311 358 9,500 -720 Descending FlightAware
09:02PM 39.7280 116.1050 135° Southeast 309 356 9,100 -840 Descending FlightAware
09:02PM 39.7210 116.1500 101° East 303 349 8,800 -840 Descending FlightAware
09:03PM 39.7190 116.1860 94° East 300 345 8,500 -960 Descending FlightAware
09:03PM 39.7170 116.2300 93° East 298 343 8,100 -900 Descending FlightAware
09:03PM 39.7160 116.2490 94° East 298 343 8,000 -600 Descending FlightAware
09:04PM 39.7190 116.2970 85° East 278 320 7,700 -720 Descending FlightAware
09:04PM 39.7230 116.3470 84° East 261 300 7,300 -720 Descending FlightAware
09:05PM 39.7230 116.3730 90° East 254 292 7,100 -780 Descending FlightAware
09:05PM 39.7060 116.4300 111° Southeast 233 268 6,600 -780 Descending FlightAware
09:06PM 39.6990 116.4550 110° East 226 260 6,400 -720 Descending FlightAware
09:06PM 39.6950 116.4980 97° East 216 249 6,000 -660 Descending FlightAware
09:07PM 39.6980 116.5280 83° East 208 239 5,800 -240 Descending FlightAware
09:07PM 39.7020 116.5680 83° East 210 242 5,800  Level FlightAware
09:08PM 39.7130 116.5990 65° Northeast 211 243 5,800  Level FlightAware
09:08PM 39.7310 116.6150 34° Northeast 210 242 5,800  Level FlightAware
09:08PM 39.7540 116.6220 13° North 203 234 5,800 -180 Level FlightAware
09:09PM 39.7760 116.6210 358° North 203 234 5,700 -480 Descending FlightAware
09:09PM 39.8070 116.6160 353° North 203 234 5,400 -660 Descending FlightAware
09:10PM 39.8200 116.6140 353° North 204 235 5,200 -1,200 Descending FlightAware
09:10PM 39.8420 116.6100 352° North 211 243 4,600 -1,440 Descending FlightAware
09:10PM 39.8760 116.6050 354° North 212 244 3,900 -1,140 Descending FlightAware
09:11PM 39.9020 116.6010 353° North 188 216 3,500 -1,020 Descending FlightAware
09:11PM 39.9230 116.5980 354° North 183 211 3,000 -1,200 Descending FlightAware
09:12PM 39.9430 116.5950 353° North 182 209 2,600 -960 Descending FlightAware
09:12PM 39.9600 116.5920 352° North 180 207 2,300 -1,020 Descending FlightAware
09:13PM 39.9800 116.5890 353° North 152 175 1,800 -840 Descending FlightAware
09:13PM 39.9950 116.5870 354° North 141 162 1,600 -780 Descending FlightAware
09:13PM 40.0050 116.5850 351° North 136 157 1,300 -480 Descending FlightAware
09:14PM 40.0190 116.5830 354° North 136 157 1,300 -720 Level FlightAware
09:15PM 40.0630 116.5760 353° North 128 147 200 -720 Descending FlightAware
09:15PM 40.0760 116.5740 353° North 128 147 200  Level FlightAware
09:18PM 40.0801 116.5846 63° Northeast  Level Estimated
09:19PM 40.0801 116.5846 288° West  Level Estimated
09:20PM 40.0801 116.5846 288° West  Level Estimated
09:21PM 40.0801 116.5846 288° West  Level Estimated
09:22PM 40.0801 116.5846 288° West  Level Estimated
09:23PM 40.0801 116.5846 288° West  Level Estimated
09:24PM 40.0801 116.5846 288° West  Level Estimated
09:25PM 40.0801 116.5846 288° West  Level Estimated
09:26PM 40.0801 116.5846 288° West  Level Estimated
09:27PM 40.0801 116.5846 288° West  Level Estimated